Terminal Aerodrome Forecast
Issued by NWS

Home | Current Version | Previous Version | Text Only | Print | Product List | Glossary Off
Versions: 1 2 3 4 5 6 7 8 9 10 11 12 13 14 15 16 17

067
FTUS43 KFGF 012320
TAFBJI
TAF
KBJI 012320Z 0200/0224 32007KT P6SM OVC012
     FM022000 31005KT P6SM BKN020=

USA.gov is the U.S. government's official web portal to all federal, state and local government web resources and services.